sensor_id;sensor_type;location;lat;lon;timestamp;temperature;humidity
52941;DHT22;62001;53.366;6.636;2022-12-29T00:02:13;10.20;99.90
52941;DHT22;62001;53.366;6.636;2022-12-29T00:04:39;10.10;99.90
52941;DHT22;62001;53.366;6.636;2022-12-29T00:07:05;10.10;99.90
52941;DHT22;62001;53.366;6.636;2022-12-29T00:09:32;10.10;99.90
52941;DHT22;62001;53.366;6.636;2022-12-29T00:11:58;10.10;99.90
52941;DHT22;62001;53.366;6.636;2022-12-29T00:14:24;10.00;99.90
52941;DHT22;62001;53.366;6.636;2022-12-29T00:17:09;10.00;99.90
52941;DHT22;62001;53.366;6.636;2022-12-29T00:19:34;10.00;99.90
52941;DHT22;62001;53.366;6.636;2022-12-29T00:22:19;10.00;99.90
52941;DHT22;62001;53.366;6.636;2022-12-29T00:25:04;10.00;99.90
52941;DHT22;62001;53.366;6.636;2022-12-29T00:27:49;10.00;99.90
52941;DHT22;62001;53.366;6.636;2022-12-29T00:30:33;10.00;99.90
52941;DHT22;62001;53.366;6.636;2022-12-29T00:33:20;10.00;99.90
52941;DHT22;62001;53.366;6.636;2022-12-29T00:39:05;10.10;99.90
52941;DHT22;62001;53.366;6.636;2022-12-29T00:41:50;10.10;99.90
52941;DHT22;62001;53.366;6.636;2022-12-29T00:44:34;10.20;99.90
52941;DHT22;62001;53.366;6.636;2022-12-29T00:47:00;10.30;99.90
52941;DHT22;62001;53.366;6.636;2022-12-29T00:49:28;10.30;99.90
52941;DHT22;62001;53.366;6.636;2022-12-29T00:54:23;10.30;99.90
52941;DHT22;62001;53.366;6.636;2022-12-29T00:56:50;10.30;99.90
52941;DHT22;62001;53.366;6.636;2022-12-29T00:59:17;10.30;99.90
52941;DHT22;62001;53.366;6.636;2022-12-29T01:01:44;10.40;99.90
52941;DHT22;62001;53.366;6.636;2022-12-29T01:04:10;10.40;99.90
52941;DHT22;62001;53.366;6.636;2022-12-29T01:06:38;10.40;99.90
52941;DHT22;62001;53.366;6.636;2022-12-29T01:09:05;10.40;99.90
52941;DHT22;62001;53.366;6.636;2022-12-29T01:11:50;10.50;99.90
52941;DHT22;62001;53.366;6.636;2022-12-29T01:14:16;10.50;99.90
52941;DHT22;62001;53.366;6.636;2022-12-29T01:16:42;10.40;99.90
52941;DHT22;62001;53.366;6.636;2022-12-29T01:19:08;10.50;99.90
52941;DHT22;62001;53.366;6.636;2022-12-29T01:21:34;10.50;99.90
52941;DHT22;62001;53.366;6.636;2022-12-29T01:24:00;10.50;99.90
52941;DHT22;62001;53.366;6.636;2022-12-29T01:26:26;10.50;99.90
52941;DHT22;62001;53.366;6.636;2022-12-29T01:28:52;10.50;99.90
52941;DHT22;62001;53.366;6.636;2022-12-29T01:31:18;10.50;99.90
52941;DHT22;62001;53.366;6.636;2022-12-29T01:33:44;10.50;99.90
52941;DHT22;62001;53.366;6.636;2022-12-29T01:36:12;10.50;99.90
52941;DHT22;62001;53.366;6.636;2022-12-29T01:38:39;10.50;99.90
52941;DHT22;62001;53.366;6.636;2022-12-29T01:41:06;10.60;99.90
52941;DHT22;62001;53.366;6.636;2022-12-29T01:43:43;10.50;99.90
52941;DHT22;62001;53.366;6.636;2022-12-29T01:46:21;10.50;99.90
52941;DHT22;62001;53.366;6.636;2022-12-29T01:48:52;10.50;99.90
52941;DHT22;62001;53.366;6.636;2022-12-29T01:51:22;10.50;99.90
52941;DHT22;62001;53.366;6.636;2022-12-29T01:53:48;10.50;99.90
52941;DHT22;62001;53.366;6.636;2022-12-29T01:56:17;10.50;99.90
52941;DHT22;62001;53.366;6.636;2022-12-29T01:58:46;10.40;99.90
52941;DHT22;62001;53.366;6.636;2022-12-29T02:01:14;10.40;99.90
52941;DHT22;62001;53.366;6.636;2022-12-29T02:03:41;10.40;99.90
52941;DHT22;62001;53.366;6.636;2022-12-29T02:06:12;10.40;99.90
52941;DHT22;62001;53.366;6.636;2022-12-29T02:08:41;10.40;99.90
52941;DHT22;62001;53.366;6.636;2022-12-29T02:11:08;10.40;99.90
52941;DHT22;62001;53.366;6.636;2022-12-29T02:13:34;10.30;99.90
52941;DHT22;62001;53.366;6.636;2022-12-29T02:16:08;10.30;99.90
52941;DHT22;62001;53.366;6.636;2022-12-29T02:35:29;10.10;99.90
52941;DHT22;62001;53.366;6.636;2022-12-29T02:38:29;10.10;99.90
52941;DHT22;62001;53.366;6.636;2022-12-29T02:41:12;10.10;99.90
52941;DHT22;62001;53.366;6.636;2022-12-29T02:46:34;10.10;99.90
52941;DHT22;62001;53.366;6.636;2022-12-29T02:49:15;10.00;99.90
52941;DHT22;62001;53.366;6.636;2022-12-29T02:51:52;10.00;99.90
52941;DHT22;62001;53.366;6.636;2022-12-29T02:54:20;10.00;99.90
52941;DHT22;62001;53.366;6.636;2022-12-29T02:57:27;10.00;99.90
52941;DHT22;62001;53.366;6.636;2022-12-29T03:00:00;10.00;99.90
52941;DHT22;62001;53.366;6.636;2022-12-29T03:08:04;10.00;99.90
52941;DHT22;62001;53.366;6.636;2022-12-29T03:10:46;10.00;99.90
52941;DHT22;62001;53.366;6.636;2022-12-29T03:16:14;10.00;99.90
52941;DHT22;62001;53.366;6.636;2022-12-29T03:18:46;10.00;99.90
52941;DHT22;62001;53.366;6.636;2022-12-29T03:21:35;10.00;99.90
52941;DHT22;62001;53.366;6.636;2022-12-29T03:24:25;10.10;99.90
52941;DHT22;62001;53.366;6.636;2022-12-29T03:26:56;10.20;99.90
52941;DHT22;62001;53.366;6.636;2022-12-29T03:29:22;10.20;99.90
52941;DHT22;62001;53.366;6.636;2022-12-29T03:31:51;10.20;99.90
52941;DHT22;62001;53.366;6.636;2022-12-29T03:34:20;10.20;99.90
52941;DHT22;62001;53.366;6.636;2022-12-29T03:36:55;10.20;99.90
52941;DHT22;62001;53.366;6.636;2022-12-29T03:39:24;10.20;99.90
52941;DHT22;62001;53.366;6.636;2022-12-29T03:42:03;10.20;99.90
52941;DHT22;62001;53.366;6.636;2022-12-29T03:44:38;10.30;99.90
52941;DHT22;62001;53.366;6.636;2022-12-29T03:47:05;10.30;99.90
52941;DHT22;62001;53.366;6.636;2022-12-29T03:49:32;10.20;99.90
52941;DHT22;62001;53.366;6.636;2022-12-29T03:51:58;10.30;99.90
52941;DHT22;62001;53.366;6.636;2022-12-29T03:54:24;10.20;99.90
52941;DHT22;62001;53.366;6.636;2022-12-29T03:56:50;10.20;99.90
52941;DHT22;62001;53.366;6.636;2022-12-29T03:59:16;10.10;99.90
52941;DHT22;62001;53.366;6.636;2022-12-29T04:01:42;10.10;99.90
52941;DHT22;62001;53.366;6.636;2022-12-29T04:04:08;10.00;99.90
52941;DHT22;62001;53.366;6.636;2022-12-29T04:06:34;9.90;99.90
52941;DHT22;62001;53.366;6.636;2022-12-29T04:09:00;9.90;99.90
52941;DHT22;62001;53.366;6.636;2022-12-29T04:11:26;9.90;99.90
52941;DHT22;62001;53.366;6.636;2022-12-29T04:13:51;9.90;99.90
52941;DHT22;62001;53.366;6.636;2022-12-29T04:16:17;9.80;99.90
52941;DHT22;62001;53.366;6.636;2022-12-29T04:18:43;9.80;99.90
52941;DHT22;62001;53.366;6.636;2022-12-29T04:21:09;9.80;99.90
52941;DHT22;62001;53.366;6.636;2022-12-29T04:23:37;9.70;99.90
52941;DHT22;62001;53.366;6.636;2022-12-29T04:26:05;9.70;99.90
52941;DHT22;62001;53.366;6.636;2022-12-29T04:28:35;9.60;99.90
52941;DHT22;62001;53.366;6.636;2022-12-29T04:31:02;9.70;99.90
52941;DHT22;62001;53.366;6.636;2022-12-29T04:33:28;9.60;99.90
52941;DHT22;62001;53.366;6.636;2022-12-29T04:35:54;9.60;99.90
52941;DHT22;62001;53.366;6.636;2022-12-29T04:38:21;9.60;99.90
52941;DHT22;62001;53.366;6.636;2022-12-29T04:40:48;9.60;99.90
52941;DHT22;62001;53.366;6.636;2022-12-29T04:43:14;9.60;99.90
52941;DHT22;62001;53.366;6.636;2022-12-29T04:45:47;9.60;99.90
52941;DHT22;62001;53.366;6.636;2022-12-29T04:48:14;9.70;99.90
52941;DHT22;62001;53.366;6.636;2022-12-29T04:50:40;9.70;99.90
52941;DHT22;62001;53.366;6.636;2022-12-29T04:53:06;9.80;99.90
52941;DHT22;62001;53.366;6.636;2022-12-29T04:55:32;9.80;99.90
52941;DHT22;62001;53.366;6.636;2022-12-29T04:57:58;9.70;99.90
52941;DHT22;62001;53.366;6.636;2022-12-29T05:00:24;9.70;99.90
52941;DHT22;62001;53.366;6.636;2022-12-29T05:02:51;9.60;99.90
52941;DHT22;62001;53.366;6.636;2022-12-29T05:05:17;9.60;99.90
52941;DHT22;62001;53.366;6.636;2022-12-29T05:07:43;9.60;99.90
52941;DHT22;62001;53.366;6.636;2022-12-29T05:10:09;9.50;99.90
52941;DHT22;62001;53.366;6.636;2022-12-29T05:12:37;9.50;99.90
52941;DHT22;62001;53.366;6.636;2022-12-29T05:15:04;9.40;99.90
52941;DHT22;62001;53.366;6.636;2022-12-29T05:17:30;9.40;99.90
52941;DHT22;62001;53.366;6.636;2022-12-29T05:19:56;9.30;99.90
52941;DHT22;62001;53.366;6.636;2022-12-29T05:22:22;9.30;99.90
52941;DHT22;62001;53.366;6.636;2022-12-29T05:24:48;9.30;99.90
52941;DHT22;62001;53.366;6.636;2022-12-29T05:27:14;9.20;99.90
52941;DHT22;62001;53.366;6.636;2022-12-29T05:29:39;9.20;99.90
52941;DHT22;62001;53.366;6.636;2022-12-29T05:32:05;9.20;99.90
52941;DHT22;62001;53.366;6.636;2022-12-29T05:34:31;9.20;99.90
52941;DHT22;62001;53.366;6.636;2022-12-29T05:36:57;9.20;99.90
52941;DHT22;62001;53.366;6.636;2022-12-29T05:39:23;9.20;99.90
52941;DHT22;62001;53.366;6.636;2022-12-29T05:41:49;9.10;99.90
52941;DHT22;62001;53.366;6.636;2022-12-29T05:44:15;9.20;99.90
52941;DHT22;62001;53.366;6.636;2022-12-29T05:46:41;9.20;99.90
52941;DHT22;62001;53.366;6.636;2022-12-29T05:49:06;9.20;99.90
52941;DHT22;62001;53.366;6.636;2022-12-29T05:51:32;9.10;99.90
52941;DHT22;62001;53.366;6.636;2022-12-29T05:53:58;9.10;99.90
52941;DHT22;62001;53.366;6.636;2022-12-29T05:56:24;9.10;99.90
52941;DHT22;62001;53.366;6.636;2022-12-29T05:58:50;9.00;99.90
52941;DHT22;62001;53.366;6.636;2022-12-29T06:01:16;9.00;99.90
52941;DHT22;62001;53.366;6.636;2022-12-29T06:03:42;9.00;99.90
52941;DHT22;62001;53.366;6.636;2022-12-29T06:06:08;8.90;99.90
52941;DHT22;62001;53.366;6.636;2022-12-29T06:08:34;9.00;99.90
52941;DHT22;62001;53.366;6.636;2022-12-29T06:10:59;8.90;99.90
52941;DHT22;62001;53.366;6.636;2022-12-29T06:13:25;9.00;99.90
52941;DHT22;62001;53.366;6.636;2022-12-29T06:15:53;9.00;99.90
52941;DHT22;62001;53.366;6.636;2022-12-29T06:18:19;8.90;99.90
52941;DHT22;62001;53.366;6.636;2022-12-29T06:20:45;9.00;99.90
52941;DHT22;62001;53.366;6.636;2022-12-29T06:23:11;9.00;99.90
52941;DHT22;62001;53.366;6.636;2022-12-29T06:25:39;9.00;99.90
52941;DHT22;62001;53.366;6.636;2022-12-29T06:28:05;9.10;99.90
52941;DHT22;62001;53.366;6.636;2022-12-29T06:30:31;9.10;99.90
52941;DHT22;62001;53.366;6.636;2022-12-29T06:33:00;9.20;99.90
52941;DHT22;62001;53.366;6.636;2022-12-29T06:35:26;9.10;99.90
52941;DHT22;62001;53.366;6.636;2022-12-29T06:37:52;9.10;99.90
52941;DHT22;62001;53.366;6.636;2022-12-29T06:40:18;9.10;99.90
52941;DHT22;62001;53.366;6.636;2022-12-29T06:42:44;9.10;99.90
52941;DHT22;62001;53.366;6.636;2022-12-29T06:45:10;9.00;99.90
52941;DHT22;62001;53.366;6.636;2022-12-29T06:47:36;9.00;99.90
52941;DHT22;62001;53.366;6.636;2022-12-29T06:50:02;8.90;99.90
52941;DHT22;62001;53.366;6.636;2022-12-29T06:52:28;8.90;99.90
52941;DHT22;62001;53.366;6.636;2022-12-29T06:54:54;8.90;99.90
52941;DHT22;62001;53.366;6.636;2022-12-29T06:57:21;8.90;99.90
52941;DHT22;62001;53.366;6.636;2022-12-29T06:59:47;8.90;99.90
52941;DHT22;62001;53.366;6.636;2022-12-29T07:02:13;8.90;99.90
52941;DHT22;62001;53.366;6.636;2022-12-29T07:04:45;8.90;99.90
52941;DHT22;62001;53.366;6.636;2022-12-29T07:07:10;8.90;99.90
52941;DHT22;62001;53.366;6.636;2022-12-29T07:09:36;8.80;99.90
52941;DHT22;62001;53.366;6.636;2022-12-29T07:12:02;8.80;99.90
52941;DHT22;62001;53.366;6.636;2022-12-29T07:14:28;8.80;99.90
52941;DHT22;62001;53.366;6.636;2022-12-29T07:16:54;8.80;99.90
52941;DHT22;62001;53.366;6.636;2022-12-29T07:19:19;8.80;99.90
52941;DHT22;62001;53.366;6.636;2022-12-29T07:21:45;8.80;99.90
52941;DHT22;62001;53.366;6.636;2022-12-29T07:24:11;8.80;99.90
52941;DHT22;62001;53.366;6.636;2022-12-29T07:26:37;8.80;99.90
52941;DHT22;62001;53.366;6.636;2022-12-29T07:29:04;8.80;99.90
52941;DHT22;62001;53.366;6.636;2022-12-29T07:31:30;8.80;99.90
52941;DHT22;62001;53.366;6.636;2022-12-29T07:33:56;8.80;99.90
52941;DHT22;62001;53.366;6.636;2022-12-29T07:36:22;8.90;99.90
52941;DHT22;62001;53.366;6.636;2022-12-29T07:38:48;8.90;99.90
52941;DHT22;62001;53.366;6.636;2022-12-29T07:41:13;9.00;99.90
52941;DHT22;62001;53.366;6.636;2022-12-29T07:43:39;9.00;99.90
52941;DHT22;62001;53.366;6.636;2022-12-29T07:46:05;9.00;99.90
52941;DHT22;62001;53.366;6.636;2022-12-29T07:48:31;9.00;99.90
52941;DHT22;62001;53.366;6.636;2022-12-29T07:50:59;9.10;99.90
52941;DHT22;62001;53.366;6.636;2022-12-29T07:53:24;9.10;99.90
52941;DHT22;62001;53.366;6.636;2022-12-29T07:55:50;9.20;99.90
52941;DHT22;62001;53.366;6.636;2022-12-29T07:58:16;9.20;99.90
52941;DHT22;62001;53.366;6.636;2022-12-29T08:00:42;9.20;99.90
52941;DHT22;62001;53.366;6.636;2022-12-29T08:03:08;9.30;99.90
52941;DHT22;62001;53.366;6.636;2022-12-29T08:05:34;9.30;99.90
52941;DHT22;62001;53.366;6.636;2022-12-29T08:08:00;9.30;99.90
52941;DHT22;62001;53.366;6.636;2022-12-29T08:10:26;9.30;99.90
52941;DHT22;62001;53.366;6.636;2022-12-29T08:12:51;9.30;99.90
52941;DHT22;62001;53.366;6.636;2022-12-29T08:15:17;9.30;99.90
52941;DHT22;62001;53.366;6.636;2022-12-29T08:17:43;9.40;99.90
52941;DHT22;62001;53.366;6.636;2022-12-29T08:20:09;9.40;99.90
52941;DHT22;62001;53.366;6.636;2022-12-29T08:22:36;9.40;99.90
52941;DHT22;62001;53.366;6.636;2022-12-29T08:25:02;9.40;99.90
52941;DHT22;62001;53.366;6.636;2022-12-29T08:27:28;9.40;99.90
52941;DHT22;62001;53.366;6.636;2022-12-29T08:29:54;9.40;99.90
52941;DHT22;62001;53.366;6.636;2022-12-29T08:32:19;9.40;99.90
52941;DHT22;62001;53.366;6.636;2022-12-29T08:34:45;9.40;99.90
52941;DHT22;62001;53.366;6.636;2022-12-29T08:37:11;9.40;99.90
52941;DHT22;62001;53.366;6.636;2022-12-29T08:39:37;9.40;99.90
52941;DHT22;62001;53.366;6.636;2022-12-29T08:42:03;9.40;99.90
52941;DHT22;62001;53.366;6.636;2022-12-29T08:44:29;9.40;99.90
52941;DHT22;62001;53.366;6.636;2022-12-29T08:46:55;9.50;99.90
52941;DHT22;62001;53.366;6.636;2022-12-29T08:49:20;9.50;99.90
52941;DHT22;62001;53.366;6.636;2022-12-29T08:51:47;9.50;99.90
52941;DHT22;62001;53.366;6.636;2022-12-29T08:54:12;9.50;99.90
52941;DHT22;62001;53.366;6.636;2022-12-29T08:56:38;9.50;99.90
52941;DHT22;62001;53.366;6.636;2022-12-29T08:59:04;9.40;99.90
52941;DHT22;62001;53.366;6.636;2022-12-29T09:01:30;9.40;99.90
52941;DHT22;62001;53.366;6.636;2022-12-29T09:03:56;9.40;99.90
52941;DHT22;62001;53.366;6.636;2022-12-29T09:06:22;9.40;99.90
52941;DHT22;62001;53.366;6.636;2022-12-29T09:08:48;9.30;99.90
52941;DHT22;62001;53.366;6.636;2022-12-29T09:11:19;9.30;99.90
52941;DHT22;62001;53.366;6.636;2022-12-29T09:13:45;9.30;99.90
52941;DHT22;62001;53.366;6.636;2022-12-29T09:16:12;9.30;99.90
52941;DHT22;62001;53.366;6.636;2022-12-29T09:18:38;9.40;99.90
52941;DHT22;62001;53.366;6.636;2022-12-29T09:21:06;9.40;99.90
52941;DHT22;62001;53.366;6.636;2022-12-29T09:23:33;9.40;99.90
52941;DHT22;62001;53.366;6.636;2022-12-29T09:25:59;9.40;99.90
52941;DHT22;62001;53.366;6.636;2022-12-29T09:28:26;9.40;99.90
52941;DHT22;62001;53.366;6.636;2022-12-29T09:30:52;9.50;99.90
52941;DHT22;62001;53.366;6.636;2022-12-29T09:33:18;9.40;99.90
52941;DHT22;62001;53.366;6.636;2022-12-29T09:35:48;9.40;99.90
52941;DHT22;62001;53.366;6.636;2022-12-29T09:38:15;9.40;99.90
52941;DHT22;62001;53.366;6.636;2022-12-29T09:40:44;9.30;99.90
52941;DHT22;62001;53.366;6.636;2022-12-29T09:51:40;9.50;99.90
52941;DHT22;62001;53.366;6.636;2022-12-29T09:57:01;9.50;99.90
52941;DHT22;62001;53.366;6.636;2022-12-29T09:59:39;9.40;99.90
52941;DHT22;62001;53.366;6.636;2022-12-29T10:04:43;9.30;99.90
52941;DHT22;62001;53.366;6.636;2022-12-29T10:07:20;9.20;99.90
52941;DHT22;62001;53.366;6.636;2022-12-29T10:20:58;9.00;99.90
52941;DHT22;62001;53.366;6.636;2022-12-29T10:23:40;9.00;99.90
52941;DHT22;62001;53.366;6.636;2022-12-29T10:26:16;9.00;99.90
52941;DHT22;62001;53.366;6.636;2022-12-29T10:29:12;9.00;99.90
52941;DHT22;62001;53.366;6.636;2022-12-29T10:32:26;9.00;99.90
52941;DHT22;62001;53.366;6.636;2022-12-29T10:34:44;9.00;99.90
52941;DHT22;62001;53.366;6.636;2022-12-29T10:37:31;9.00;99.90
52941;DHT22;62001;53.366;6.636;2022-12-29T10:39:59;9.10;99.90
52941;DHT22;62001;53.366;6.636;2022-12-29T10:42:35;9.10;99.90
52941;DHT22;62001;53.366;6.636;2022-12-29T10:45:04;9.10;99.90
52941;DHT22;62001;53.366;6.636;2022-12-29T10:47:37;9.10;99.90
52941;DHT22;62001;53.366;6.636;2022-12-29T10:50:04;9.10;99.90
52941;DHT22;62001;53.366;6.636;2022-12-29T10:52:33;9.10;99.90
52941;DHT22;62001;53.366;6.636;2022-12-29T10:55:03;9.10;99.90
52941;DHT22;62001;53.366;6.636;2022-12-29T10:57:39;9.10;99.90
52941;DHT22;62001;53.366;6.636;2022-12-29T11:00:15;9.10;99.90
52941;DHT22;62001;53.366;6.636;2022-12-29T11:03:12;9.00;99.90
52941;DHT22;62001;53.366;6.636;2022-12-29T11:06:00;9.00;99.90
52941;DHT22;62001;53.366;6.636;2022-12-29T11:08:35;9.00;99.90
52941;DHT22;62001;53.366;6.636;2022-12-29T11:11:07;9.00;99.90
52941;DHT22;62001;53.366;6.636;2022-12-29T11:13:46;9.00;99.90
52941;DHT22;62001;53.366;6.636;2022-12-29T11:16:13;9.10;99.90
52941;DHT22;62001;53.366;6.636;2022-12-29T11:18:40;9.10;99.90
52941;DHT22;62001;53.366;6.636;2022-12-29T11:26:23;9.10;99.90
52941;DHT22;62001;53.366;6.636;2022-12-29T11:31:49;9.20;99.90
52941;DHT22;62001;53.366;6.636;2022-12-29T11:34:30;9.30;99.90
52941;DHT22;62001;53.366;6.636;2022-12-29T11:37:11;9.30;99.90
52941;DHT22;62001;53.366;6.636;2022-12-29T11:39:57;9.30;99.90
52941;DHT22;62001;53.366;6.636;2022-12-29T11:42:50;9.30;99.90
52941;DHT22;62001;53.366;6.636;2022-12-29T11:45:27;9.40;99.90
52941;DHT22;62001;53.366;6.636;2022-12-29T11:47:57;9.40;99.90
52941;DHT22;62001;53.366;6.636;2022-12-29T11:50:30;9.50;99.90
52941;DHT22;62001;53.366;6.636;2022-12-29T11:53:04;9.50;99.90
52941;DHT22;62001;53.366;6.636;2022-12-29T11:55:31;9.50;99.90
52941;DHT22;62001;53.366;6.636;2022-12-29T11:58:00;9.50;99.90
52941;DHT22;62001;53.366;6.636;2022-12-29T12:00:30;9.50;99.90
52941;DHT22;62001;53.366;6.636;2022-12-29T12:03:04;9.60;99.90
52941;DHT22;62001;53.366;6.636;2022-12-29T12:05:37;9.50;99.90
52941;DHT22;62001;53.366;6.636;2022-12-29T12:10:46;9.50;99.90
52941;DHT22;62001;53.366;6.636;2022-12-29T12:13:20;9.60;99.90
52941;DHT22;62001;53.366;6.636;2022-12-29T12:15:54;9.60;99.90
52941;DHT22;62001;53.366;6.636;2022-12-29T12:21:22;9.60;99.90
52941;DHT22;62001;53.366;6.636;2022-12-29T12:24:31;9.50;99.90
52941;DHT22;62001;53.366;6.636;2022-12-29T12:29:52;9.40;99.90
52941;DHT22;62001;53.366;6.636;2022-12-29T12:33:05;9.30;99.90
52941;DHT22;62001;53.366;6.636;2022-12-29T12:43:58;9.00;99.90
52941;DHT22;62001;53.366;6.636;2022-12-29T12:52:16;9.00;99.90
52941;DHT22;62001;53.366;6.636;2022-12-29T13:00:43;9.20;99.90
52941;DHT22;62001;53.366;6.636;2022-12-29T13:09:06;9.50;99.90
52941;DHT22;62001;53.366;6.636;2022-12-29T13:12:17;9.60;99.90
52941;DHT22;62001;53.366;6.636;2022-12-29T13:23:25;9.50;99.90
52941;DHT22;62001;53.366;6.636;2022-12-29T13:28:50;9.60;99.90
52941;DHT22;62001;53.366;6.636;2022-12-29T13:31:40;9.60;99.90
52941;DHT22;62001;53.366;6.636;2022-12-29T13:34:28;9.70;99.90
52941;DHT22;62001;53.366;6.636;2022-12-29T13:37:00;9.70;99.90
52941;DHT22;62001;53.366;6.636;2022-12-29T13:39:37;9.60;99.90
52941;DHT22;62001;53.366;6.636;2022-12-29T13:42:04;9.50;99.90
52941;DHT22;62001;53.366;6.636;2022-12-29T13:44:53;9.40;99.90
52941;DHT22;62001;53.366;6.636;2022-12-29T13:47:35;9.40;99.90
52941;DHT22;62001;53.366;6.636;2022-12-29T13:50:04;9.30;99.90
52941;DHT22;62001;53.366;6.636;2022-12-29T13:55:37;9.10;99.90
52941;DHT22;62001;53.366;6.636;2022-12-29T14:01:22;9.00;99.90
52941;DHT22;62001;53.366;6.636;2022-12-29T14:03:55;9.00;99.90
52941;DHT22;62001;53.366;6.636;2022-12-29T14:09:00;8.90;99.90
52941;DHT22;62001;53.366;6.636;2022-12-29T14:11:39;8.80;99.90
52941;DHT22;62001;53.366;6.636;2022-12-29T14:14:19;8.80;99.90
52941;DHT22;62001;53.366;6.636;2022-12-29T14:16:47;8.70;99.90
52941;DHT22;62001;53.366;6.636;2022-12-29T14:19:40;8.60;99.90
52941;DHT22;62001;53.366;6.636;2022-12-29T14:22:08;8.60;99.90
52941;DHT22;62001;53.366;6.636;2022-12-29T14:29:50;8.50;99.90
52941;DHT22;62001;53.366;6.636;2022-12-29T14:34:59;8.40;99.90
52941;DHT22;62001;53.366;6.636;2022-12-29T14:37:32;8.40;99.90
52941;DHT22;62001;53.366;6.636;2022-12-29T14:40:17;8.40;99.90
52941;DHT22;62001;53.366;6.636;2022-12-29T14:42:47;8.30;99.90
52941;DHT22;62001;53.366;6.636;2022-12-29T14:47:44;8.30;99.90
52941;DHT22;62001;53.366;6.636;2022-12-29T14:50:22;8.30;99.90
52941;DHT22;62001;53.366;6.636;2022-12-29T14:52:56;8.30;99.90
52941;DHT22;62001;53.366;6.636;2022-12-29T14:58:00;8.30;99.90
52941;DHT22;62001;53.366;6.636;2022-12-29T15:00:32;8.20;99.90
52941;DHT22;62001;53.366;6.636;2022-12-29T15:03:07;8.20;99.90
52941;DHT22;62001;53.366;6.636;2022-12-29T15:08:24;8.20;99.90
52941;DHT22;62001;53.366;6.636;2022-12-29T15:11:00;8.10;99.90
52941;DHT22;62001;53.366;6.636;2022-12-29T15:13:39;8.10;99.90
52941;DHT22;62001;53.366;6.636;2022-12-29T15:16:31;8.00;99.90
52941;DHT22;62001;53.366;6.636;2022-12-29T15:18:58;8.00;99.90
52941;DHT22;62001;53.366;6.636;2022-12-29T15:21:30;8.00;99.90
52941;DHT22;62001;53.366;6.636;2022-12-29T15:23:56;7.90;99.90
52941;DHT22;62001;53.366;6.636;2022-12-29T15:26:23;7.90;99.90
52941;DHT22;62001;53.366;6.636;2022-12-29T15:28:52;7.80;99.90
52941;DHT22;62001;53.366;6.636;2022-12-29T15:31:24;7.80;99.90
52941;DHT22;62001;53.366;6.636;2022-12-29T15:33:53;7.80;99.90
52941;DHT22;62001;53.366;6.636;2022-12-29T15:36:25;7.70;99.90
52941;DHT22;62001;53.366;6.636;2022-12-29T15:38:52;7.70;99.90
52941;DHT22;62001;53.366;6.636;2022-12-29T15:41:41;7.70;99.90
52941;DHT22;62001;53.366;6.636;2022-12-29T15:44:38;7.70;99.90
52941;DHT22;62001;53.366;6.636;2022-12-29T15:47:11;7.60;99.90
52941;DHT22;62001;53.366;6.636;2022-12-29T15:49:37;7.70;99.90
52941;DHT22;62001;53.366;6.636;2022-12-29T15:52:08;7.70;99.90
52941;DHT22;62001;53.366;6.636;2022-12-29T15:54:34;7.60;99.90
52941;DHT22;62001;53.366;6.636;2022-12-29T15:57:02;7.60;99.90
52941;DHT22;62001;53.366;6.636;2022-12-29T15:59:33;7.60;99.90
52941;DHT22;62001;53.366;6.636;2022-12-29T16:02:01;7.60;99.90
52941;DHT22;62001;53.366;6.636;2022-12-29T16:04:30;7.60;99.90
52941;DHT22;62001;53.366;6.636;2022-12-29T16:09:31;7.50;99.90
52941;DHT22;62001;53.366;6.636;2022-12-29T16:11:59;7.50;99.90
52941;DHT22;62001;53.366;6.636;2022-12-29T16:14:44;7.50;99.90
52941;DHT22;62001;53.366;6.636;2022-12-29T16:17:14;7.50;99.90
52941;DHT22;62001;53.366;6.636;2022-12-29T16:19:51;7.50;99.90
52941;DHT22;62001;53.366;6.636;2022-12-29T16:22:29;7.60;99.90
52941;DHT22;62001;53.366;6.636;2022-12-29T16:25:03;7.60;99.90
52941;DHT22;62001;53.366;6.636;2022-12-29T16:27:39;7.70;99.90
52941;DHT22;62001;53.366;6.636;2022-12-29T16:30:16;7.80;99.90
52941;DHT22;62001;53.366;6.636;2022-12-29T16:32:51;7.80;99.90
52941;DHT22;62001;53.366;6.636;2022-12-29T16:35:28;7.80;99.90
52941;DHT22;62001;53.366;6.636;2022-12-29T16:38:17;7.80;99.90
52941;DHT22;62001;53.366;6.636;2022-12-29T16:40:54;7.80;99.90
52941;DHT22;62001;53.366;6.636;2022-12-29T16:43:25;7.80;99.90
52941;DHT22;62001;53.366;6.636;2022-12-29T16:48:23;7.70;99.90
52941;DHT22;62001;53.366;6.636;2022-12-29T16:50:50;7.60;99.90
52941;DHT22;62001;53.366;6.636;2022-12-29T16:53:37;7.50;99.90
52941;DHT22;62001;53.366;6.636;2022-12-29T16:56:25;7.40;99.90
52941;DHT22;62001;53.366;6.636;2022-12-29T17:01:24;7.20;99.90
52941;DHT22;62001;53.366;6.636;2022-12-29T17:03:54;7.20;99.90
52941;DHT22;62001;53.366;6.636;2022-12-29T17:06:22;7.10;99.90
52941;DHT22;62001;53.366;6.636;2022-12-29T17:08:49;7.00;99.90
52941;DHT22;62001;53.366;6.636;2022-12-29T17:11:23;7.00;99.90
52941;DHT22;62001;53.366;6.636;2022-12-29T17:14:44;7.00;99.90
52941;DHT22;62001;53.366;6.636;2022-12-29T17:17:43;7.00;99.90
52941;DHT22;62001;53.366;6.636;2022-12-29T17:20:23;6.90;99.90
52941;DHT22;62001;53.366;6.636;2022-12-29T17:22:50;6.90;99.90
52941;DHT22;62001;53.366;6.636;2022-12-29T17:25:20;6.80;99.90
52941;DHT22;62001;53.366;6.636;2022-12-29T17:27:50;6.80;99.90
52941;DHT22;62001;53.366;6.636;2022-12-29T17:30:20;6.90;99.90
52941;DHT22;62001;53.366;6.636;2022-12-29T17:32:53;6.90;99.90
52941;DHT22;62001;53.366;6.636;2022-12-29T17:35:21;6.90;99.90
52941;DHT22;62001;53.366;6.636;2022-12-29T17:37:47;6.90;99.90
52941;DHT22;62001;53.366;6.636;2022-12-29T17:40:16;6.90;99.90
52941;DHT22;62001;53.366;6.636;2022-12-29T17:42:44;6.90;99.90
52941;DHT22;62001;53.366;6.636;2022-12-29T17:45:30;6.90;99.90
52941;DHT22;62001;53.366;6.636;2022-12-29T17:47:57;6.90;99.90
52941;DHT22;62001;53.366;6.636;2022-12-29T17:50:28;6.90;99.90
52941;DHT22;62001;53.366;6.636;2022-12-29T17:52:57;6.90;99.90
52941;DHT22;62001;53.366;6.636;2022-12-29T17:55:24;6.90;99.90
52941;DHT22;62001;53.366;6.636;2022-12-29T17:57:51;7.00;99.90
52941;DHT22;62001;53.366;6.636;2022-12-29T18:00:25;7.00;99.90
52941;DHT22;62001;53.366;6.636;2022-12-29T18:02:55;7.10;99.90
52941;DHT22;62001;53.366;6.636;2022-12-29T18:05:27;7.10;99.90
52941;DHT22;62001;53.366;6.636;2022-12-29T18:07:55;7.20;99.90
52941;DHT22;62001;53.366;6.636;2022-12-29T18:10:23;7.20;99.90
52941;DHT22;62001;53.366;6.636;2022-12-29T18:12:51;7.20;99.90
52941;DHT22;62001;53.366;6.636;2022-12-29T18:15:31;7.20;99.90
52941;DHT22;62001;53.366;6.636;2022-12-29T18:18:11;7.30;99.90
52941;DHT22;62001;53.366;6.636;2022-12-29T18:20:38;7.20;99.90
52941;DHT22;62001;53.366;6.636;2022-12-29T18:23:05;7.20;99.90
52941;DHT22;62001;53.366;6.636;2022-12-29T18:25:41;7.20;99.90
52941;DHT22;62001;53.366;6.636;2022-12-29T18:28:08;7.20;99.90
52941;DHT22;62001;53.366;6.636;2022-12-29T18:30:35;7.20;99.90
52941;DHT22;62001;53.366;6.636;2022-12-29T18:33:01;7.20;99.90